sensor_id;sensor_type;location;lat;lon;timestamp;pressure;altitude;pressure_sealevel;temperature;humidity
43934;BME280;59081;42.706;23.306;2023-06-10T00:02:14;94685.56;;;17.09;89.67
43934;BME280;59081;42.706;23.306;2023-06-10T00:04:42;94724.34;;;17.44;89.60
43934;BME280;59081;42.706;23.306;2023-06-10T00:07:11;94655.59;;;16.98;89.59
43934;BME280;59081;42.706;23.306;2023-06-10T00:09:37;94745.44;;;17.56;89.80
43934;BME280;59081;42.706;23.306;2023-06-10T00:12:10;94719.97;;;17.37;90.95
43934;BME280;59081;42.706;23.306;2023-06-10T00:14:38;94781.88;;;17.79;91.64
43934;BME280;59081;42.706;23.306;2023-06-10T00:17:04;94765.16;;;17.79;91.84
43934;BME280;59081;42.706;23.306;2023-06-10T00:19:35;94722.66;;;17.26;92.91
43934;BME280;59081;42.706;23.306;2023-06-10T00:22:01;94781.28;;;17.69;93.50
43934;BME280;59081;42.706;23.306;2023-06-10T00:24:28;94670.94;;;16.88;94.45
43934;BME280;59081;42.706;23.306;2023-06-10T00:26:57;94838.41;;;17.85;95.46
43934;BME280;59081;42.706;23.306;2023-06-10T00:29:22;94743.50;;;17.11;96.65
43934;BME280;59081;42.706;23.306;2023-06-10T00:31:48;94634.69;;;16.36;96.69
43934;BME280;59081;42.706;23.306;2023-06-10T00:44:27;94789.78;;;17.34;98.04
43934;BME280;59081;42.706;23.306;2023-06-10T00:46:53;94717.94;;;16.86;98.10
43934;BME280;59081;42.706;23.306;2023-06-10T00:49:21;94647.19;;;16.47;97.58
43934;BME280;59081;42.706;23.306;2023-06-10T00:51:47;94728.59;;;16.88;98.12
43934;BME280;59081;42.706;23.306;2023-06-10T00:54:13;94722.03;;;16.91;97.86
43934;BME280;59081;42.706;23.306;2023-06-10T00:56:39;94780.34;;;17.26;97.83
43934;BME280;59081;42.706;23.306;2023-06-10T00:59:10;94810.19;;;17.25;98.60
43934;BME280;59081;42.706;23.306;2023-06-10T01:01:41;94690.28;;;16.57;98.38
43934;BME280;59081;42.706;23.306;2023-06-10T01:04:08;94784.59;;;17.21;98.24
43934;BME280;59081;42.706;23.306;2023-06-10T01:09:45;94843.00;;;17.88;97.25
43934;BME280;59081;42.706;23.306;2023-06-10T01:12:21;94672.28;;;16.73;96.52
43934;BME280;59081;42.706;23.306;2023-06-10T01:14:52;94853.97;;;17.97;96.26
43934;BME280;59081;42.706;23.306;2023-06-10T01:17:17;94685.25;;;16.81;96.48
43934;BME280;59081;42.706;23.306;2023-06-10T01:19:44;94713.03;;;17.01;96.66
43934;BME280;59081;42.706;23.306;2023-06-10T01:22:10;94658.09;;;16.70;96.80
43934;BME280;59081;42.706;23.306;2023-06-10T01:24:41;94668.56;;;16.81;97.15
43934;BME280;59081;42.706;23.306;2023-06-10T01:27:12;94661.00;;;16.82;97.36
43934;BME280;59081;42.706;23.306;2023-06-10T01:29:46;94668.50;;;16.96;97.22
43934;BME280;59081;42.706;23.306;2023-06-10T01:32:27;94632.09;;;16.74;97.38
43934;BME280;59081;42.706;23.306;2023-06-10T01:34:58;94774.50;;;17.76;97.51
43934;BME280;59081;42.706;23.306;2023-06-10T01:37:25;94770.19;;;17.74;97.04
43934;BME280;59081;42.706;23.306;2023-06-10T01:39:52;94694.34;;;17.28;97.75
43934;BME280;59081;42.706;23.306;2023-06-10T01:42:20;94707.63;;;17.44;97.50
43934;BME280;59081;42.706;23.306;2023-06-10T01:44:46;94842.13;;;18.33;97.35
43934;BME280;59081;42.706;23.306;2023-06-10T01:47:12;94651.03;;;16.95;99.08
43934;BME280;59081;42.706;23.306;2023-06-10T01:49:38;94715.06;;;17.01;100.00
43934;BME280;59081;42.706;23.306;2023-06-10T01:52:04;94699.81;;;16.70;100.00
43934;BME280;59081;42.706;23.306;2023-06-10T01:54:29;94789.66;;;17.23;100.00
43934;BME280;59081;42.706;23.306;2023-06-10T01:56:55;94606.59;;;16.09;100.00
43934;BME280;59081;42.706;23.306;2023-06-10T01:59:21;94710.03;;;16.79;100.00
43934;BME280;59081;42.706;23.306;2023-06-10T02:01:46;94756.75;;;17.21;100.00
43934;BME280;59081;42.706;23.306;2023-06-10T02:04:12;94640.94;;;16.52;100.00
43934;BME280;59081;42.706;23.306;2023-06-10T02:06:38;94634.94;;;16.59;100.00
43934;BME280;59081;42.706;23.306;2023-06-10T02:09:03;94632.94;;;16.59;99.39
43934;BME280;59081;42.706;23.306;2023-06-10T02:11:29;94588.41;;;16.33;99.36
43934;BME280;59081;42.706;23.306;2023-06-10T02:13:55;94763.19;;;17.33;100.00
43934;BME280;59081;42.706;23.306;2023-06-10T02:16:20;94740.41;;;17.29;100.00
43934;BME280;59081;42.706;23.306;2023-06-10T02:18:46;94695.00;;;16.91;100.00
43934;BME280;59081;42.706;23.306;2023-06-10T02:21:14;94627.88;;;16.38;100.00
43934;BME280;59081;42.706;23.306;2023-06-10T02:23:39;94649.75;;;16.70;100.00
43934;BME280;59081;42.706;23.306;2023-06-10T02:26:05;94648.59;;;16.83;99.32
43934;BME280;59081;42.706;23.306;2023-06-10T02:28:31;94738.53;;;17.46;99.49
43934;BME280;59081;42.706;23.306;2023-06-10T02:30:57;94738.63;;;17.57;99.35
43934;BME280;59081;42.706;23.306;2023-06-10T02:33:23;94696.50;;;17.44;98.86
43934;BME280;59081;42.706;23.306;2023-06-10T02:35:49;94630.66;;;17.10;98.73
43934;BME280;59081;42.706;23.306;2023-06-10T02:38:17;94607.53;;;16.98;96.71
43934;BME280;59081;42.706;23.306;2023-06-10T02:40:43;94696.13;;;17.62;96.58
43934;BME280;59081;42.706;23.306;2023-06-10T02:43:09;94802.59;;;18.40;97.00
43934;BME280;59081;42.706;23.306;2023-06-10T02:45:35;94609.25;;;17.21;97.07
43934;BME280;59081;42.706;23.306;2023-06-10T02:48:00;94706.47;;;17.88;96.37
43934;BME280;59081;42.706;23.306;2023-06-10T02:50:26;94663.03;;;17.70;96.47
43934;BME280;59081;42.706;23.306;2023-06-10T02:52:51;94622.81;;;17.39;96.05
43934;BME280;59081;42.706;23.306;2023-06-10T02:55:17;94626.16;;;17.49;95.23
43934;BME280;59081;42.706;23.306;2023-06-10T02:57:43;94719.34;;;18.17;95.75
43934;BME280;59081;42.706;23.306;2023-06-10T03:00:09;94725.91;;;18.19;96.25
43934;BME280;59081;42.706;23.306;2023-06-10T03:02:39;94798.00;;;18.69;96.15
43934;BME280;59081;42.706;23.306;2023-06-10T03:05:05;94676.03;;;17.84;95.68
43934;BME280;59081;42.706;23.306;2023-06-10T03:07:35;94799.75;;;18.72;95.67
43934;BME280;59081;42.706;23.306;2023-06-10T03:10:01;94709.66;;;18.12;95.29
43934;BME280;59081;42.706;23.306;2023-06-10T03:12:26;94812.78;;;18.86;95.20
43934;BME280;59081;42.706;23.306;2023-06-10T03:14:55;94743.00;;;18.38;96.15
43934;BME280;59081;42.706;23.306;2023-06-10T03:17:20;94672.75;;;17.86;97.60
43934;BME280;59081;42.706;23.306;2023-06-10T03:19:46;94622.88;;;17.51;98.32
43934;BME280;59081;42.706;23.306;2023-06-10T03:22:14;94650.81;;;17.62;98.29
43934;BME280;59081;42.706;23.306;2023-06-10T03:24:40;94742.13;;;18.15;99.83
43934;BME280;59081;42.706;23.306;2023-06-10T03:27:12;94824.47;;;18.53;100.00
43934;BME280;59081;42.706;23.306;2023-06-10T03:29:39;94824.69;;;18.44;100.00
43934;BME280;59081;42.706;23.306;2023-06-10T03:32:05;94643.69;;;17.24;100.00
43934;BME280;59081;42.706;23.306;2023-06-10T03:34:31;94690.47;;;17.51;100.00
43934;BME280;59081;42.706;23.306;2023-06-10T03:36:57;94737.25;;;17.73;100.00
43934;BME280;59081;42.706;23.306;2023-06-10T03:39:29;94646.53;;;17.03;100.00
43934;BME280;59081;42.706;23.306;2023-06-10T03:41:57;94666.94;;;17.21;100.00
43934;BME280;59081;42.706;23.306;2023-06-10T03:44:24;94685.25;;;17.33;100.00
43934;BME280;59081;42.706;23.306;2023-06-10T03:46:51;94723.44;;;17.58;100.00
43934;BME280;59081;42.706;23.306;2023-06-10T03:49:17;94657.50;;;17.13;100.00
43934;BME280;59081;42.706;23.306;2023-06-10T03:51:43;94703.81;;;17.42;100.00
43934;BME280;59081;42.706;23.306;2023-06-10T03:54:09;94707.16;;;17.46;100.00
43934;BME280;59081;42.706;23.306;2023-06-10T03:56:35;94730.53;;;17.59;100.00
43934;BME280;59081;42.706;23.306;2023-06-10T03:59:01;94791.91;;;17.96;100.00
43934;BME280;59081;42.706;23.306;2023-06-10T04:01:26;94734.94;;;17.66;100.00
43934;BME280;59081;42.706;23.306;2023-06-10T04:03:53;94655.16;;;17.05;100.00
43934;BME280;59081;42.706;23.306;2023-06-10T04:06:20;94648.88;;;17.11;99.73
43934;BME280;59081;42.706;23.306;2023-06-10T04:08:48;94721.72;;;17.35;99.70
43934;BME280;59081;42.706;23.306;2023-06-10T04:11:17;94623.81;;;16.79;99.93
43934;BME280;59081;42.706;23.306;2023-06-10T04:13:42;94639.91;;;16.95;99.51
43934;BME280;59081;42.706;23.306;2023-06-10T04:16:08;94783.56;;;17.96;98.97
43934;BME280;59081;42.706;23.306;2023-06-10T04:18:53;94826.16;;;18.34;97.86
43934;BME280;59081;42.706;23.306;2023-06-10T04:21:30;94644.38;;;17.13;97.19
43934;BME280;59081;42.706;23.306;2023-06-10T04:23:59;94655.50;;;17.13;96.98
43934;BME280;59081;42.706;23.306;2023-06-10T04:26:25;94646.53;;;17.03;97.03
43934;BME280;59081;42.706;23.306;2023-06-10T04:28:51;94672.28;;;17.24;96.89
43934;BME280;59081;42.706;23.306;2023-06-10T04:31:17;94769.28;;;17.89;97.00
43934;BME280;59081;42.706;23.306;2023-06-10T04:33:43;94828.88;;;18.28;97.77
43934;BME280;59081;42.706;23.306;2023-06-10T04:36:08;94832.66;;;18.25;98.54
43934;BME280;59081;42.706;23.306;2023-06-10T04:38:34;94761.63;;;17.78;99.22
43934;BME280;59081;42.706;23.306;2023-06-10T04:41:03;94624.91;;;16.87;97.98
43934;BME280;59081;42.706;23.306;2023-06-10T04:43:29;94651.41;;;17.09;98.30
43934;BME280;59081;42.706;23.306;2023-06-10T04:45:55;94657.75;;;17.15;97.57
43934;BME280;59081;42.706;23.306;2023-06-10T04:48:21;94743.66;;;17.79;96.86
43934;BME280;59081;42.706;23.306;2023-06-10T04:50:49;94625.88;;;17.10;97.02
43934;BME280;59081;42.706;23.306;2023-06-10T04:53:23;94661.44;;;17.32;98.58
43934;BME280;59081;42.706;23.306;2023-06-10T04:55:49;94835.63;;;18.48;99.06
43934;BME280;59081;42.706;23.306;2023-06-10T04:58:18;94786.19;;;18.11;99.31
43934;BME280;59081;42.706;23.306;2023-06-10T05:00:46;94654.63;;;17.33;98.71
43934;BME280;59081;42.706;23.306;2023-06-10T05:03:12;94754.03;;;18.16;98.25
43934;BME280;59081;42.706;23.306;2023-06-10T05:05:40;94647.63;;;17.43;97.55
43934;BME280;59081;42.706;23.306;2023-06-10T05:08:06;94826.53;;;18.53;97.09
43934;BME280;59081;42.706;23.306;2023-06-10T05:10:35;94653.00;;;17.21;96.20
43934;BME280;59081;42.706;23.306;2023-06-10T05:13:01;94718.25;;;17.71;95.19
43934;BME280;59081;42.706;23.306;2023-06-10T05:15:32;94738.41;;;17.92;95.07
43934;BME280;59081;42.706;23.306;2023-06-10T05:18:00;94767.38;;;18.00;95.67
43934;BME280;59081;42.706;23.306;2023-06-10T05:20:28;94754.44;;;17.97;96.63
43934;BME280;59081;42.706;23.306;2023-06-10T05:22:54;94648.97;;;17.22;97.98
43934;BME280;59081;42.706;23.306;2023-06-10T05:25:20;94625.09;;;17.10;97.74
43934;BME280;59081;42.706;23.306;2023-06-10T05:30:22;94762.72;;;17.92;98.95
43934;BME280;59081;42.706;23.306;2023-06-10T05:32:51;94658.03;;;17.17;99.16
43934;BME280;59081;42.706;23.306;2023-06-10T05:35:27;94721.03;;;17.71;99.45
43934;BME280;59081;42.706;23.306;2023-06-10T05:37:52;94757.00;;;18.06;98.86
43934;BME280;59081;42.706;23.306;2023-06-10T05:40:18;94801.56;;;18.38;97.31
43934;BME280;59081;42.706;23.306;2023-06-10T05:42:49;94706.63;;;18.10;96.60
43934;BME280;59081;42.706;23.306;2023-06-10T05:45:14;94834.75;;;19.27;97.79
43934;BME280;59081;42.706;23.306;2023-06-10T05:47:40;94849.59;;;19.50;92.22
43934;BME280;59081;42.706;23.306;2023-06-10T05:50:06;94786.44;;;18.98;90.22
43934;BME280;59081;42.706;23.306;2023-06-10T05:52:36;94848.63;;;19.64;92.89
43934;BME280;59081;42.706;23.306;2023-06-10T05:55:05;94845.13;;;19.97;89.79
43934;BME280;59081;42.706;23.306;2023-06-10T05:57:31;94660.84;;;18.98;88.29
43934;BME280;59081;42.706;23.306;2023-06-10T05:59:58;94794.81;;;19.86;87.01
43934;BME280;59081;42.706;23.306;2023-06-10T06:02:24;94740.66;;;19.66;87.00
43934;BME280;59081;42.706;23.306;2023-06-10T06:04:50;94756.94;;;19.73;87.29
43934;BME280;59081;42.706;23.306;2023-06-10T06:07:16;94642.09;;;19.16;86.72
43934;BME280;59081;42.706;23.306;2023-06-10T06:09:41;94675.63;;;19.38;85.50
43934;BME280;59081;42.706;23.306;2023-06-10T06:12:08;94650.50;;;19.38;84.87
43934;BME280;59081;42.706;23.306;2023-06-10T06:14:37;94779.56;;;20.42;84.08
43934;BME280;59081;42.706;23.306;2023-06-10T06:17:05;94848.63;;;20.92;84.02
43934;BME280;59081;42.706;23.306;2023-06-10T06:19:34;94694.19;;;19.80;83.33
43934;BME280;59081;42.706;23.306;2023-06-10T06:21:59;94857.50;;;20.96;82.50
43934;BME280;59081;42.706;23.306;2023-06-10T06:24:28;94761.75;;;20.40;82.36
43934;BME280;59081;42.706;23.306;2023-06-10T06:26:57;94817.59;;;20.79;82.34
43934;BME280;59081;42.706;23.306;2023-06-10T06:31:58;94787.41;;;20.44;82.72
43934;BME280;59081;42.706;23.306;2023-06-10T06:34:24;94681.97;;;19.77;82.18
43934;BME280;59081;42.706;23.306;2023-06-10T06:36:56;94800.13;;;20.50;80.27
43934;BME280;59081;42.706;23.306;2023-06-10T06:39:30;94748.03;;;20.14;78.75
43934;BME280;59081;42.706;23.306;2023-06-10T06:41:56;94642.34;;;19.18;80.69
43934;BME280;59081;42.706;23.306;2023-06-10T06:44:21;94780.03;;;20.30;80.19
43934;BME280;59081;42.706;23.306;2023-06-10T06:46:47;94730.75;;;19.93;80.85
43934;BME280;59081;42.706;23.306;2023-06-10T06:49:13;94798.59;;;20.27;80.51
43934;BME280;59081;42.706;23.306;2023-06-10T06:51:41;94670.25;;;19.12;82.56
43934;BME280;59081;42.706;23.306;2023-06-10T06:54:10;94798.63;;;20.05;80.08
43934;BME280;59081;42.706;23.306;2023-06-10T06:56:37;94835.22;;;20.18;80.96
43934;BME280;59081;42.706;23.306;2023-06-10T06:59:03;94855.78;;;20.26;80.68
43934;BME280;59081;42.706;23.306;2023-06-10T07:01:33;94678.94;;;19.36;80.82
43934;BME280;59081;42.706;23.306;2023-06-10T07:03:58;94649.47;;;19.19;82.20
43934;BME280;59081;42.706;23.306;2023-06-10T07:06:24;94750.84;;;19.80;81.70
43934;BME280;59081;42.706;23.306;2023-06-10T07:08:51;94836.25;;;20.43;81.71
43934;BME280;59081;42.706;23.306;2023-06-10T07:11:16;94626.06;;;19.05;81.87
43934;BME280;59081;42.706;23.306;2023-06-10T07:13:43;94843.34;;;20.44;81.84
43934;BME280;59081;42.706;23.306;2023-06-10T07:16:08;94747.28;;;19.97;80.46
43934;BME280;59081;42.706;23.306;2023-06-10T07:18:34;94729.97;;;20.15;79.65
43934;BME280;59081;42.706;23.306;2023-06-10T07:21:00;94733.75;;;20.34;78.07
43934;BME280;59081;42.706;23.306;2023-06-10T07:23:25;94717.50;;;20.22;77.45
43934;BME280;59081;42.706;23.306;2023-06-10T07:25:51;94761.66;;;20.73;77.12
43934;BME280;59081;42.706;23.306;2023-06-10T07:28:16;94824.81;;;21.38;74.55
43934;BME280;59081;42.706;23.306;2023-06-10T07:30:42;94653.16;;;20.27;70.00
43934;BME280;59081;42.706;23.306;2023-06-10T07:33:07;94742.38;;;20.59;65.84
43934;BME280;59081;42.706;23.306;2023-06-10T07:35:33;94680.38;;;20.27;66.97
43934;BME280;59081;42.706;23.306;2023-06-10T07:37:59;94662.84;;;20.37;65.92
43934;BME280;59081;42.706;23.306;2023-06-10T07:40:24;94741.56;;;20.75;66.23
43934;BME280;59081;42.706;23.306;2023-06-10T07:42:50;94784.22;;;21.50;64.62
43934;BME280;59081;42.706;23.306;2023-06-10T07:45:15;94654.22;;;20.88;63.68
43934;BME280;59081;42.706;23.306;2023-06-10T07:47:42;94765.47;;;21.80;62.63
43934;BME280;59081;42.706;23.306;2023-06-10T07:50:08;94706.09;;;21.76;62.80
43934;BME280;59081;42.706;23.306;2023-06-10T07:52:34;94645.00;;;21.69;60.25
43934;BME280;59081;42.706;23.306;2023-06-10T07:55:00;94834.22;;;23.07;58.76
43934;BME280;59081;42.706;23.306;2023-06-10T07:57:25;94754.59;;;22.31;58.95
43934;BME280;59081;42.706;23.306;2023-06-10T07:59:51;94826.63;;;22.77;60.50
43934;BME280;59081;42.706;23.306;2023-06-10T08:02:17;94732.91;;;22.32;59.89
43934;BME280;59081;42.706;23.306;2023-06-10T08:04:42;94669.19;;;21.72;60.84
43934;BME280;59081;42.706;23.306;2023-06-10T08:07:08;94790.75;;;22.89;60.96
43934;BME280;59081;42.706;23.306;2023-06-10T08:09:34;94661.13;;;22.42;58.43
43934;BME280;59081;42.706;23.306;2023-06-10T08:12:00;94735.44;;;23.21;55.12
43934;BME280;59081;42.706;23.306;2023-06-10T08:14:25;94756.28;;;23.69;54.44
43934;BME280;59081;42.706;23.306;2023-06-10T08:16:51;94720.81;;;23.47;53.82
43934;BME280;59081;42.706;23.306;2023-06-10T08:19:17;94806.75;;;24.31;51.69
43934;BME280;59081;42.706;23.306;2023-06-10T08:21:42;94747.31;;;23.71;53.78
43934;BME280;59081;42.706;23.306;2023-06-10T08:24:09;94658.91;;;23.34;53.24
43934;BME280;59081;42.706;23.306;2023-06-10T08:26:34;94787.50;;;24.35;52.85
43934;BME280;59081;42.706;23.306;2023-06-10T08:29:00;94753.06;;;23.78;54.92
43934;BME280;59081;42.706;23.306;2023-06-10T08:31:26;94730.13;;;23.74;54.60
43934;BME280;59081;42.706;23.306;2023-06-10T08:33:51;94731.44;;;24.05;51.55
43934;BME280;59081;42.706;23.306;2023-06-10T08:36:20;94775.41;;;24.67;51.32
43934;BME280;59081;42.706;23.306;2023-06-10T08:38:45;94714.91;;;24.15;50.36
43934;BME280;59081;42.706;23.306;2023-06-10T08:41:14;94674.59;;;23.62;51.27
43934;BME280;59081;42.706;23.306;2023-06-10T08:43:50;94771.81;;;24.40;51.30
43934;BME280;59081;42.706;23.306;2023-06-10T08:46:20;94673.50;;;23.97;51.96
43934;BME280;59081;42.706;23.306;2023-06-10T08:48:48;94708.16;;;24.37;52.05
43934;BME280;59081;42.706;23.306;2023-06-10T08:51:18;94662.09;;;24.21;50.84
43934;BME280;59081;42.706;23.306;2023-06-10T08:54:01;94660.88;;;24.03;49.92
43934;BME280;59081;42.706;23.306;2023-06-10T08:56:28;94780.53;;;25.21;50.75
43934;BME280;59081;42.706;23.306;2023-06-10T08:59:08;94616.44;;;24.28;50.50
43934;BME280;59081;42.706;23.306;2023-06-10T09:01:35;94694.63;;;24.48;50.47
43934;BME280;59081;42.706;23.306;2023-06-10T09:04:04;94648.25;;;24.62;49.52
43934;BME280;59081;42.706;23.306;2023-06-10T09:06:32;94653.69;;;24.47;49.65
43934;BME280;59081;42.706;23.306;2023-06-10T09:08:59;94647.53;;;24.36;47.80
43934;BME280;59081;42.706;23.306;2023-06-10T09:11:24;94657.69;;;24.65;49.65
43934;BME280;59081;42.706;23.306;2023-06-10T09:13:50;94667.53;;;24.98;50.23
43934;BME280;59081;42.706;23.306;2023-06-10T09:16:16;94614.34;;;24.68;49.79
43934;BME280;59081;42.706;23.306;2023-06-10T09:18:42;94688.34;;;24.69;50.74
43934;BME280;59081;42.706;23.306;2023-06-10T09:21:08;94650.22;;;24.41;49.30
43934;BME280;59081;42.706;23.306;2023-06-10T09:23:34;94692.00;;;24.77;49.03
43934;BME280;59081;42.706;23.306;2023-06-10T09:26:00;94689.31;;;24.71;49.30
43934;BME280;59081;42.706;23.306;2023-06-10T09:28:26;94636.56;;;24.32;49.43
43934;BME280;59081;42.706;23.306;2023-06-10T09:31:05;94765.91;;;24.96;49.37
43934;BME280;59081;42.706;23.306;2023-06-10T09:33:32;94652.22;;;24.01;49.39
43934;BME280;59081;42.706;23.306;2023-06-10T09:36:01;94762.00;;;24.73;48.12
43934;BME280;59081;42.706;23.306;2023-06-10T09:38:32;94759.06;;;25.18;47.97
43934;BME280;59081;42.706;23.306;2023-06-10T09:40:58;94561.41;;;23.74;47.40
43934;BME280;59081;42.706;23.306;2023-06-10T09:43:43;94574.81;;;23.68;48.19
43934;BME280;59081;42.706;23.306;2023-06-10T09:46:17;94688.75;;;24.99;48.32
43934;BME280;59081;42.706;23.306;2023-06-10T09:48:45;94639.56;;;25.00;45.54
43934;BME280;59081;42.706;23.306;2023-06-10T09:51:12;94648.72;;;25.27;45.00
43934;BME280;59081;42.706;23.306;2023-06-10T09:53:37;94650.97;;;25.28;45.78
43934;BME280;59081;42.706;23.306;2023-06-10T09:56:03;94657.78;;;25.67;44.87
43934;BME280;59081;42.706;23.306;2023-06-10T09:58:36;94667.34;;;25.64;44.18
43934;BME280;59081;42.706;23.306;2023-06-10T10:01:07;94614.47;;;24.76;44.72
43934;BME280;59081;42.706;23.306;2023-06-10T10:03:34;94658.63;;;24.81;45.12
43934;BME280;59081;42.706;23.306;2023-06-10T10:06:00;94592.47;;;24.74;45.16
43934;BME280;59081;42.706;23.306;2023-06-10T10:08:26;94633.75;;;25.53;42.98
43934;BME280;59081;42.706;23.306;2023-06-10T10:10:51;94601.19;;;25.31;40.42
43934;BME280;59081;42.706;23.306;2023-06-10T10:13:18;94718.44;;;26.36;40.68
43934;BME280;59081;42.706;23.306;2023-06-10T10:15:45;94669.13;;;26.16;39.83
43934;BME280;59081;42.706;23.306;2023-06-10T10:18:14;94623.16;;;26.29;38.43
43934;BME280;59081;42.706;23.306;2023-06-10T10:20:47;94662.81;;;26.88;37.42
43934;BME280;59081;42.706;23.306;2023-06-10T10:23:20;94565.03;;;26.41;38.08
43934;BME280;59081;42.706;23.306;2023-06-10T10:25:51;94598.09;;;26.61;38.80
43934;BME280;59081;42.706;23.306;2023-06-10T10:28:21;94610.44;;;26.79;38.55
43934;BME280;59081;42.706;23.306;2023-06-10T10:30:53;94514.94;;;26.34;38.55
43934;BME280;59081;42.706;23.306;2023-06-10T10:38:49;94703.41;;;28.08;37.40
43934;BME280;59081;42.706;23.306;2023-06-10T10:44:09;94685.34;;;26.73;39.38
43934;BME280;59081;42.706;23.306;2023-06-10T10:59:24;94598.31;;;26.63;36.69
43934;BME280;59081;42.706;23.306;2023-06-10T11:04:28;94535.19;;;26.25;39.46
43934;BME280;59081;42.706;23.306;2023-06-10T11:06:55;94648.16;;;27.33;38.61
43934;BME280;59081;42.706;23.306;2023-06-10T11:09:31;94660.69;;;27.09;39.90
43934;BME280;59081;42.706;23.306;2023-06-10T11:12:00;94609.13;;;26.44;39.79
43934;BME280;59081;42.706;23.306;2023-06-10T11:14:27;94624.00;;;26.24;41.14
43934;BME280;59081;42.706;23.306;2023-06-10T11:16:57;94648.19;;;26.61;40.79
43934;BME280;59081;42.706;23.306;2023-06-10T11:19:34;94559.97;;;25.62;40.62
43934;BME280;59081;42.706;23.306;2023-06-10T11:22:07;94600.22;;;25.62;43.60
43934;BME280;59081;42.706;23.306;2023-06-10T11:24:35;94541.94;;;25.23;45.04
43934;BME280;59081;42.706;23.306;2023-06-10T11:29:38;94638.88;;;26.81;42.29
43934;BME280;59081;42.706;23.306;2023-06-10T11:40:29;94462.91;;;25.57;39.93
43934;BME280;59081;42.706;23.306;2023-06-10T11:42:59;94594.75;;;25.85;40.96
43934;BME280;59081;42.706;23.306;2023-06-10T11:45:26;94481.78;;;25.42;40.78
43934;BME280;59081;42.706;23.306;2023-06-10T11:50:29;94527.38;;;26.39;39.32
43934;BME280;59081;42.706;23.306;2023-06-10T11:52:57;94577.66;;;26.40;38.35
43934;BME280;59081;42.706;23.306;2023-06-10T11:55:58;94617.53;;;27.01;37.47
43934;BME280;59081;42.706;23.306;2023-06-10T11:58:15;94565.94;;;26.72;37.95
43934;BME280;59081;42.706;23.306;2023-06-10T12:01:10;94504.78;;;26.39;38.29
43934;BME280;59081;42.706;23.306;2023-06-10T12:21:44;94488.28;;;25.78;34.68
43934;BME280;59081;42.706;23.306;2023-06-10T12:24:10;94500.91;;;25.85;34.05
43934;BME280;59081;42.706;23.306;2023-06-10T12:26:44;94517.00;;;26.05;34.81
43934;BME280;59081;42.706;23.306;2023-06-10T12:29:21;94610.34;;;26.64;34.16
43934;BME280;59081;42.706;23.306;2023-06-10T12:32:01;94438.38;;;25.45;33.32
43934;BME280;59081;42.706;23.306;2023-06-10T12:34:39;94608.25;;;26.57;33.36
43934;BME280;59081;42.706;23.306;2023-06-10T12:37:11;94499.50;;;25.71;34.24
43934;BME280;59081;42.706;23.306;2023-06-10T12:39:41;94504.38;;;25.49;33.33
43934;BME280;59081;42.706;23.306;2023-06-10T12:42:12;94491.16;;;25.65;34.24
43934;BME280;59081;42.706;23.306;2023-06-10T12:44:41;94585.72;;;26.36;33.81
43934;BME280;59081;42.706;23.306;2023-06-10T12:47:13;94523.63;;;26.08;33.52
43934;BME280;59081;42.706;23.306;2023-06-10T12:49:39;94494.81;;;25.73;32.61
43934;BME280;59081;42.706;23.306;2023-06-10T12:52:05;94558.97;;;26.29;33.12
43934;BME280;59081;42.706;23.306;2023-06-10T12:54:31;94557.13;;;26.40;31.62
43934;BME280;59081;42.706;23.306;2023-06-10T12:56:57;94606.97;;;26.65;31.66
43934;BME280;59081;42.706;23.306;2023-06-10T12:59:23;94549.09;;;26.51;32.12
43934;BME280;59081;42.706;23.306;2023-06-10T13:01:53;94496.78;;;26.22;32.55
43934;BME280;59081;42.706;23.306;2023-06-10T13:04:20;94597.47;;;26.84;32.73
43934;BME280;59081;42.706;23.306;2023-06-10T13:06:47;94563.66;;;26.63;31.93
43934;BME280;59081;42.706;23.306;2023-06-10T13:09:13;94446.31;;;25.54;33.20
43934;BME280;59081;42.706;23.306;2023-06-10T13:11:40;94505.53;;;26.03;34.35
43934;BME280;59081;42.706;23.306;2023-06-10T13:14:07;94539.84;;;25.86;39.63
43934;BME280;59081;42.706;23.306;2023-06-10T13:16:34;94478.63;;;24.36;46.27
43934;BME280;59081;42.706;23.306;2023-06-10T13:18:59;94508.91;;;23.50;49.19
43934;BME280;59081;42.706;23.306;2023-06-10T13:21:28;94416.31;;;22.17;51.38
43934;BME280;59081;42.706;23.306;2023-06-10T13:23:53;94450.84;;;21.87;53.96
43934;BME280;59081;42.706;23.306;2023-06-10T13:26:19;94528.66;;;22.06;55.70
43934;BME280;59081;42.706;23.306;2023-06-10T13:28:45;94420.03;;;20.66;59.11
43934;BME280;59081;42.706;23.306;2023-06-10T13:31:11;94503.03;;;21.17;60.60
43934;BME280;59081;42.706;23.306;2023-06-10T13:33:37;94482.91;;;20.95;62.10
43934;BME280;59081;42.706;23.306;2023-06-10T13:36:04;94551.47;;;21.12;63.51
43934;BME280;59081;42.706;23.306;2023-06-10T13:38:32;94605.66;;;21.21;64.97
43934;BME280;59081;42.706;23.306;2023-06-10T13:40:58;94628.69;;;21.38;65.77
43934;BME280;59081;42.706;23.306;2023-06-10T13:43:24;94632.28;;;21.33;68.05
43934;BME280;59081;42.706;23.306;2023-06-10T13:45:49;94628.59;;;21.13;69.53
43934;BME280;59081;42.706;23.306;2023-06-10T13:48:15;94490.38;;;19.93;72.66
43934;BME280;59081;42.706;23.306;2023-06-10T13:50:41;94504.91;;;19.86;75.00
43934;BME280;59081;42.706;23.306;2023-06-10T13:53:11;94432.50;;;18.91;76.81
43934;BME280;59081;42.706;23.306;2023-06-10T13:55:37;94395.00;;;18.59;78.14
43934;BME280;59081;42.706;23.306;2023-06-10T13:58:03;94435.56;;;18.71;79.54
43934;BME280;59081;42.706;23.306;2023-06-10T14:00:29;94549.94;;;19.43;77.84
43934;BME280;59081;42.706;23.306;2023-06-10T14:02:54;94506.03;;;19.33;77.52
43934;BME280;59081;42.706;23.306;2023-06-10T14:05:20;94555.22;;;19.75;75.81
43934;BME280;59081;42.706;23.306;2023-06-10T14:07:46;94636.38;;;20.38;76.14